Terminal Aerodrome Forecast
Issued by NWS Mt. Holly, NJ

Home | Current Version | Previous Version | Text Only | Print | Product List | Glossary On
Versions: 1 2 3 4 5 6 7 8 9 10 11 12 13 14 15 16 17 18 19 20 21 22 23 24 25 26 27 28 29 30 31 32 33 34 35
000
FTAK31 PANC 211500 AAA
TAFABE
TAF AMD
PABE 211500Z 2115/2212 10008KT P6SM -SN OVC015
      TEMPO 2115/2118 3SM -SN BR BKN005
     FM211800 13010KT 5SM -SN OVC025
     FM212300 14010KT P6SM BKN060=

USA.gov is the U.S. government's official web portal to all federal, state and local government web resources and services.